Terminal Aerodrome Forecast
Issued by NWS

Home | Current Version | Previous Version | Text Only | Print | Product List | Glossary On
Versions: 1 2 3 4 5 6 7 8 9 10 11 12 13 14 15 16 17 18 19 20 21 22 23 24
333
FTUS45 KGJT 011135
TAFMTJ
TAF
KMTJ 011135Z 0112/0212 14005KT P6SM SKC
     FM012000 34006KT P6SM SCT110
     FM020100 20004KT P6SM SCT200
     FM020300 14005KT P6SM SCT200
     FM020600 14009KT P6SM FEW200=

USA.gov is the U.S. government's official web portal to all federal, state and local government web resources and services.